createdAt,value
2022-08-09T00:00:04.280Z,70.48
2022-08-09T00:02:49.104Z,70.45
2022-08-09T00:06:16.653Z,70.15
2022-08-09T00:08:09.887Z,70.19
2022-08-09T00:10:38.300Z,70.50
2022-08-09T00:13:16.760Z,71.29
2022-08-09T00:15:58.130Z,71.45
2022-08-09T00:18:34.980Z,71.26
2022-08-09T00:21:05.373Z,71.04
2022-08-09T00:23:55.927Z,71.48
2022-08-09T00:26:32.253Z,71.52
2022-08-09T00:29:03.500Z,71.38
2022-08-09T00:31:59.865Z,71.29
2022-08-09T00:34:28.446Z,72.29
2022-08-09T00:37:03.128Z,72.11
2022-08-09T00:40:12.498Z,72.35
2022-08-09T00:44:16.715Z,73.08
2022-08-09T00:45:15.698Z,73.09
2022-08-09T00:47:46.191Z,73.56
2022-08-09T00:50:15.050Z,74.17
2022-08-09T00:52:43.631Z,74.46
2022-08-09T00:55:32.898Z,74.19
2022-08-09T00:58:00.196Z,74.19
2022-08-09T01:00:29.807Z,74.47
2022-08-09T01:03:09.126Z,74.88
2022-08-09T01:05:51.035Z,75.92
2022-08-09T01:08:34.785Z,75.97
2022-08-09T01:11:15.021Z,75.89
2022-08-09T01:13:59.041Z,75.78
2022-08-09T01:16:35.122Z,76.38
2022-08-09T01:19:17.122Z,76.18
2022-08-09T01:22:16.641Z,76.66
2022-08-09T01:24:56.709Z,76.96
2022-08-09T01:27:29.197Z,76.37
2022-08-09T01:30:01.762Z,76.78
2022-08-09T01:32:34.266Z,77.16
2022-08-09T01:35:28.606Z,76.66
2022-08-09T01:38:10.095Z,76.47
2022-08-09T01:40:44.936Z,77.10
2022-08-09T01:43:24.201Z,77.39
2022-08-09T01:45:58.082Z,77.69
2022-08-09T01:48:29.868Z,77.32
2022-08-09T01:51:00.662Z,77.95
2022-08-09T01:53:41.211Z,78.26
2022-08-09T01:56:11.772Z,77.99
2022-08-09T01:58:43.716Z,77.38
2022-08-09T02:01:18.309Z,78.66
2022-08-09T02:03:48.299Z,77.74
2022-08-09T02:06:18.602Z,78.62
2022-08-09T02:08:58.540Z,78.49
2022-08-09T02:11:42.903Z,79.28
2022-08-09T02:14:26.268Z,79.42
2022-08-09T02:17:15.127Z,79.54
2022-08-09T02:19:44.996Z,79.53
2022-08-09T02:22:31.553Z,79.72
2022-08-09T02:25:06.616Z,79.57
2022-08-09T02:27:57.305Z,80.55
2022-08-09T02:30:30.322Z,81.03
2022-08-09T02:33:01.604Z,81.58
2022-08-09T02:36:01.716Z,81.52
2022-08-09T02:38:28.866Z,81.18
2022-08-09T02:41:00.391Z,81.12
2022-08-09T02:43:42.428Z,82.03
2022-08-09T02:46:25.337Z,82.29
2022-08-09T02:48:57.759Z,81.75
2022-08-09T02:51:28.219Z,81.48
2022-08-09T02:54:06.805Z,81.45
2022-08-09T02:56:37.132Z,81.93
2022-08-09T02:59:06.690Z,81.63
2022-08-09T03:02:05.156Z,80.78
2022-08-09T03:04:29.001Z,81.17
2022-08-09T03:06:59.783Z,81.87
2022-08-09T03:09:42.565Z,81.85
2022-08-09T03:12:13.298Z,81.37
2022-08-09T03:14:43.982Z,80.83
2022-08-09T03:17:26.616Z,80.45
2022-08-09T03:20:03.478Z,82.39
2022-08-09T03:22:41.576Z,81.94
2022-08-09T03:25:26.799Z,81.34
2022-08-09T03:28:03.922Z,81.51
2022-08-09T03:30:34.526Z,81.35
2022-08-09T03:33:17.969Z,80.92
2022-08-09T03:36:13.716Z,82.08
2022-08-09T03:38:37.347Z,83.18
2022-08-09T03:41:10.263Z,83.08
2022-08-09T03:44:03.078Z,82.72
2022-08-09T03:46:32.422Z,83.26
2022-08-09T03:49:08.450Z,84.06
2022-08-09T03:51:54.207Z,84.00
2022-08-09T03:54:31.226Z,83.66
2022-08-09T03:57:04.044Z,83.11
2022-08-09T03:59:53.476Z,83.76
2022-08-09T04:02:26.502Z,83.84
2022-08-09T04:05:00.714Z,83.87
2022-08-09T04:07:47.465Z,84.29
2022-08-09T04:10:20.757Z,84.01
2022-08-09T04:12:56.554Z,83.84
2022-08-09T04:15:42.573Z,84.06
2022-08-09T04:18:17.957Z,83.41
2022-08-09T04:20:48.894Z,84.06
2022-08-09T04:23:17.764Z,84.17
2022-08-09T04:25:51.601Z,84.62
2022-08-09T04:28:33.846Z,84.70
2022-08-09T04:31:08.981Z,83.95
2022-08-09T04:33:47.290Z,84.36
2022-08-09T04:36:24.458Z,85.20
2022-08-09T04:38:52.421Z,84.61
2022-08-09T04:41:23.940Z,84.20
2022-08-09T04:44:05.158Z,84.78
2022-08-09T04:46:38.207Z,84.52
2022-08-09T04:49:40.385Z,83.52
2022-08-09T04:52:18.603Z,84.20
2022-08-09T04:54:57.363Z,83.19
2022-08-09T04:57:25.824Z,83.11
2022-08-09T04:59:55.453Z,82.94
2022-08-09T05:02:24.239Z,82.42
2022-08-09T05:04:56.018Z,83.36
2022-08-09T05:07:31.841Z,82.79
2022-08-09T05:10:02.248Z,82.03
2022-08-09T05:12:33.016Z,82.56
2022-08-09T05:15:11.191Z,81.75
2022-08-09T05:18:38.647Z,81.41
2022-08-09T05:20:29.739Z,81.15
2022-08-09T05:23:54.130Z,80.82
2022-08-09T05:25:51.096Z,79.44
2022-08-09T05:28:20.137Z,79.69
2022-08-09T05:30:51.609Z,79.41
2022-08-09T05:33:19.899Z,78.98
2022-08-09T05:35:54.492Z,77.71
2022-08-09T05:38:26.285Z,76.97
2022-08-09T05:40:56.025Z,76.63
2022-08-09T05:43:24.666Z,76.52
2022-08-09T05:45:59.614Z,76.92
2022-08-09T05:48:33.049Z,76.31
2022-08-09T05:51:41.600Z,76.63
2022-08-09T05:53:57.682Z,76.09
2022-08-09T05:56:27.957Z,76.36
2022-08-09T05:58:58.489Z,76.27
2022-08-09T06:01:34.012Z,75.62
2022-08-09T06:04:10.675Z,76.06
2022-08-09T06:06:45.182Z,75.27
2022-08-09T06:09:23.266Z,75.06
2022-08-09T06:12:08.032Z,75.15
2022-08-09T06:14:36.105Z,74.85
2022-08-09T06:17:09.140Z,74.89
2022-08-09T06:19:37.841Z,74.10
2022-08-09T06:22:06.221Z,73.28
2022-08-09T06:24:44.257Z,73.26
2022-08-09T06:27:12.078Z,72.85
2022-08-09T06:29:48.041Z,72.02
2022-08-09T06:32:53.563Z,71.99
2022-08-09T06:35:15.225Z,71.77
2022-08-09T06:37:52.859Z,71.35
2022-08-09T06:40:33.426Z,70.62
2022-08-09T06:43:02.252Z,70.41
2022-08-09T06:46:05.901Z,70.11
2022-08-09T06:48:30.358Z,69.75
2022-08-09T06:50:59.676Z,69.56
2022-08-09T06:53:33.343Z,68.88
2022-08-09T06:56:09.325Z,68.34
2022-08-09T07:00:47.719Z,67.86
2022-08-09T07:01:27.655Z,66.41
2022-08-09T07:04:04.363Z,66.54
2022-08-09T07:06:32.827Z,65.23
2022-08-09T07:09:02.553Z,64.65
2022-08-09T07:11:45.528Z,64.75
2022-08-09T07:14:26.682Z,65.07
2022-08-09T07:16:58.334Z,64.00
2022-08-09T07:19:26.627Z,63.74
2022-08-09T07:21:58.888Z,62.72
2022-08-09T07:24:31.860Z,63.20
2022-08-09T07:27:27.379Z,62.32
2022-08-09T07:30:01.026Z,61.93
2022-08-09T07:32:33.010Z,61.58
2022-08-09T07:35:10.090Z,60.77
2022-08-09T07:37:43.236Z,60.16
2022-08-09T07:40:14.222Z,59.54
2022-08-09T07:42:52.418Z,59.87
2022-08-09T07:45:40.344Z,60.05
2022-08-09T07:48:25.583Z,58.38
2022-08-09T07:51:09.824Z,58.36
2022-08-09T07:54:05.797Z,57.41
2022-08-09T07:56:38.964Z,57.46
2022-08-09T07:59:25.758Z,56.42
2022-08-09T08:02:03.300Z,56.82
2022-08-09T08:04:33.371Z,56.16
2022-08-09T08:07:15.394Z,55.27
2022-08-09T08:09:55.193Z,55.79
2022-08-09T08:12:36.919Z,55.65
2022-08-09T08:15:07.911Z,55.13
2022-08-09T08:17:53.211Z,53.91
2022-08-09T08:20:29.709Z,54.30
2022-08-09T08:23:06.370Z,54.06
2022-08-09T08:25:46.698Z,53.76
2022-08-09T08:28:18.026Z,53.67
2022-08-09T08:30:55.361Z,51.75
2022-08-09T08:33:24.711Z,51.58
2022-08-09T08:36:00.109Z,50.94
2022-08-09T08:38:30.115Z,51.11
2022-08-09T08:40:59.661Z,50.54
2022-08-09T08:43:28.142Z,49.23
2022-08-09T08:46:10.013Z,49.00
2022-08-09T08:48:53.403Z,48.77
2022-08-09T08:51:22.743Z,48.81
2022-08-09T08:54:03.068Z,49.03
2022-08-09T08:56:35.682Z,47.66
2022-08-09T08:59:07.801Z,47.97
2022-08-09T09:01:52.736Z,47.55
2022-08-09T09:04:31.955Z,47.62
2022-08-09T09:07:10.972Z,47.29
2022-08-09T09:10:02.831Z,47.32
2022-08-09T09:12:35.607Z,47.33
2022-08-09T09:15:06.432Z,47.45
2022-08-09T09:17:51.714Z,47.26
2022-08-09T09:20:21.808Z,46.67
2022-08-09T09:22:55.843Z,47.41
2022-08-09T09:26:04.668Z,47.49
2022-08-09T09:29:02.860Z,47.07
2022-08-09T09:31:17.472Z,47.23
2022-08-09T09:34:15.185Z,46.71
2022-08-09T09:36:53.764Z,46.30
2022-08-09T09:39:25.782Z,46.10
2022-08-09T09:42:24.305Z,45.54
2022-08-09T09:44:57.643Z,45.95
2022-08-09T09:47:25.867Z,45.83
2022-08-09T09:50:14.457Z,45.52
2022-08-09T09:52:53.752Z,44.97
2022-08-09T09:55:28.018Z,45.26
2022-08-09T09:58:19.037Z,45.38
2022-08-09T10:00:53.827Z,44.17
2022-08-09T10:03:42.856Z,44.63
2022-08-09T10:06:13.616Z,43.26
2022-08-09T10:08:57.369Z,42.87
2022-08-09T10:12:00.345Z,43.44
2022-08-09T10:14:31.041Z,41.77
2022-08-09T10:17:39.671Z,43.08
2022-08-09T10:19:58.885Z,42.97
2022-08-09T10:22:34.094Z,42.53
2022-08-09T10:25:10.977Z,42.37
2022-08-09T10:27:45.344Z,42.23
2022-08-09T10:33:29.569Z,41.87
2022-08-09T10:36:03.378Z,43.17
2022-08-09T10:38:55.851Z,41.37
2022-08-09T10:41:22.379Z,41.99
2022-08-09T10:43:59.487Z,41.94
2022-08-09T10:46:55.644Z,42.17
2022-08-09T10:49:50.804Z,41.53
2022-08-09T10:52:42.640Z,41.45
2022-08-09T10:55:25.289Z,40.15
2022-08-09T10:57:55.937Z,39.77
2022-08-09T11:03:06.571Z,38.92
2022-08-09T11:03:49.946Z,39.46
2022-08-09T11:06:22.932Z,40.50
2022-08-09T11:08:53.488Z,40.00
2022-08-09T11:11:24.212Z,40.27
2022-08-09T11:14:38.063Z,40.43
2022-08-09T11:18:02.674Z,39.61
2022-08-09T11:20:47.563Z,39.28
2022-08-09T11:23:29.815Z,37.27
2022-08-09T11:26:00.336Z,37.37
2022-08-09T11:28:34.328Z,37.34
2022-08-09T11:31:06.872Z,37.89
2022-08-09T11:33:46.678Z,37.99
2022-08-09T11:36:30.372Z,37.74
2022-08-09T11:39:05.299Z,37.54
2022-08-09T11:41:38.566Z,38.38
2022-08-09T11:44:08.895Z,37.36
2022-08-09T11:46:53.188Z,36.90
2022-08-09T11:50:52.472Z,37.67
2022-08-09T11:54:01.305Z,37.97
2022-08-09T11:56:41.962Z,38.44
2022-08-09T11:59:30.490Z,38.80
2022-08-09T12:02:17.680Z,39.19
2022-08-09T12:04:54.652Z,38.51
2022-08-09T12:07:41.217Z,38.14
2022-08-09T12:10:14.459Z,38.16
2022-08-09T12:13:03.709Z,38.22
2022-08-09T12:15:52.076Z,38.15
2022-08-09T12:18:26.219Z,37.89
2022-08-09T12:21:00.331Z,37.13
2022-08-09T12:23:56.473Z,36.54
2022-08-09T12:26:25.997Z,36.28
2022-08-09T12:29:15.412Z,36.27
2022-08-09T12:32:02.036Z,36.00
2022-08-09T12:34:35.038Z,35.99
2022-08-09T12:37:21.346Z,35.69
2022-08-09T12:40:01.747Z,35.19
2022-08-09T12:42:32.351Z,35.42
2022-08-09T12:45:00.549Z,35.19
2022-08-09T12:47:37.111Z,35.43
2022-08-09T12:50:23.443Z,35.72
2022-08-09T12:53:17.684Z,35.57
2022-08-09T12:56:15.479Z,36.08
2022-08-09T12:58:31.422Z,36.50
2022-08-09T13:01:04.422Z,36.97
2022-08-09T13:03:53.030Z,37.39
2022-08-09T13:06:34.755Z,37.34
2022-08-09T13:09:14.743Z,36.92
2022-08-09T13:11:45.288Z,36.94
2022-08-09T13:14:41.987Z,36.48
2022-08-09T13:17:08.578Z,35.90
2022-08-09T13:20:09.492Z,36.38
2022-08-09T13:22:35.956Z,35.97
2022-08-09T13:25:14.390Z,35.39
2022-08-09T13:27:48.780Z,35.30
2022-08-09T13:30:50.669Z,35.25
2022-08-09T13:33:52.282Z,35.10
2022-08-09T13:36:24.338Z,34.88
2022-08-09T13:39:34.131Z,34.64
2022-08-09T13:41:57.940Z,34.33
2022-08-09T13:44:28.555Z,34.03
2022-08-09T13:47:30.806Z,34.10
2022-08-09T13:49:57.138Z,33.88
2022-08-09T13:52:26.650Z,33.74
2022-08-09T13:55:00.013Z,34.26
2022-08-09T13:57:39.727Z,34.03
2022-08-09T14:00:12.933Z,33.47
2022-08-09T14:03:04.411Z,33.46
2022-08-09T14:05:59.041Z,33.76
2022-08-09T14:08:23.781Z,34.22
2022-08-09T14:10:55.015Z,34.10
2022-08-09T14:14:15.566Z,33.23
2022-08-09T14:16:15.149Z,33.31
2022-08-09T14:18:49.589Z,33.75
2022-08-09T14:21:20.073Z,33.28
2022-08-09T14:23:54.049Z,32.89
2022-08-09T14:26:31.826Z,32.70
2022-08-09T14:29:03.123Z,33.27
2022-08-09T14:31:49.904Z,32.55
2022-08-09T14:34:32.261Z,32.44
2022-08-09T14:37:07.458Z,32.72
2022-08-09T14:39:40.239Z,32.63
2022-08-09T14:42:28.937Z,32.67
2022-08-09T14:46:46.400Z,32.92
2022-08-09T14:47:58.438Z,32.79
2022-08-09T14:50:31.053Z,33.65
2022-08-09T14:53:00.456Z,32.99
2022-08-09T14:55:29.142Z,33.10
2022-08-09T14:58:02.917Z,33.30
2022-08-09T15:00:32.334Z,31.54
2022-08-09T15:03:01.987Z,31.56
2022-08-09T15:05:36.491Z,31.38
2022-08-09T15:08:05.432Z,31.29
2022-08-09T15:10:35.186Z,30.65
2022-08-09T15:13:04.848Z,30.98
2022-08-09T15:15:39.365Z,30.93
2022-08-09T15:18:14.132Z,30.98
2022-08-09T15:21:58.158Z,30.64
2022-08-09T15:24:02.028Z,31.07
2022-08-09T15:26:30.955Z,30.28
2022-08-09T15:29:04.881Z,29.80
2022-08-09T15:31:41.315Z,28.58
2022-08-09T15:34:33.151Z,27.74
2022-08-09T15:37:01.192Z,28.38
2022-08-09T15:39:43.992Z,27.28
2022-08-09T15:42:20.000Z,27.61
2022-08-09T15:44:49.952Z,26.45
2022-08-09T15:47:22.550Z,26.08
2022-08-09T15:50:04.983Z,26.43
2022-08-09T15:52:36.023Z,25.63
2022-08-09T15:55:05.830Z,25.42
2022-08-09T15:57:44.569Z,25.34
2022-08-09T16:00:25.777Z,25.38
2022-08-09T16:02:56.108Z,24.98
2022-08-09T16:05:47.328Z,24.12
2022-08-09T16:08:29.738Z,24.44
2022-08-09T16:11:01.589Z,24.59
2022-08-09T16:14:02.681Z,24.54
2022-08-09T16:16:19.054Z,24.21
2022-08-09T16:18:47.345Z,24.43
2022-08-09T16:21:16.867Z,23.96
2022-08-09T16:23:50.891Z,23.85
2022-08-09T16:26:34.939Z,23.25
2022-08-09T16:29:10.401Z,22.94
2022-08-09T16:32:20.546Z,22.50
2022-08-09T16:34:29.898Z,22.91
2022-08-09T16:37:53.351Z,22.33
2022-08-09T16:40:12.395Z,22.64
2022-08-09T16:42:44.913Z,23.77
2022-08-09T16:45:14.805Z,22.18
2022-08-09T16:48:39.467Z,22.90
2022-08-09T16:50:34.484Z,22.04
2022-08-09T16:53:02.800Z,22.60
2022-08-09T16:56:00.171Z,22.13
2022-08-09T16:58:20.993Z,22.03
2022-08-09T17:00:51.282Z,21.56
2022-08-09T17:03:21.787Z,21.43
2022-08-09T17:06:07.769Z,21.80
2022-08-09T17:08:44.380Z,22.08
2022-08-09T17:11:32.917Z,21.41
2022-08-09T17:14:25.730Z,21.98
2022-08-09T17:16:59.645Z,22.67
2022-08-09T17:19:47.628Z,22.11
2022-08-09T17:22:16.396Z,22.03
2022-08-09T17:24:54.804Z,21.77
2022-08-09T17:27:24.894Z,21.10
2022-08-09T17:29:53.303Z,21.50
2022-08-09T17:32:26.646Z,21.50
2022-08-09T17:35:11.933Z,21.82
2022-08-09T17:38:07.646Z,21.34
2022-08-09T17:40:32.740Z,21.96
2022-08-09T17:43:32.991Z,22.67
2022-08-09T17:46:04.184Z,24.81
2022-08-09T17:48:35.186Z,25.86
2022-08-09T17:51:09.660Z,26.43
2022-08-09T17:53:51.378Z,26.95
2022-08-09T17:56:21.491Z,28.17
2022-08-09T17:58:50.689Z,28.68
2022-08-09T18:01:22.366Z,28.52
2022-08-09T18:03:51.953Z,29.04
2022-08-09T18:06:31.116Z,28.81
2022-08-09T18:09:03.172Z,29.69
2022-08-09T18:11:46.830Z,29.94
2022-08-09T18:14:23.878Z,30.38
2022-08-09T18:16:53.521Z,30.04
2022-08-09T18:20:57.360Z,30.67
2022-08-09T18:22:16.720Z,30.92
2022-08-09T18:24:46.345Z,30.88
2022-08-09T18:27:49.217Z,30.83
2022-08-09T18:30:40.546Z,31.66
2022-08-09T18:32:54.981Z,31.68
2022-08-09T18:35:58.578Z,32.14
2022-08-09T18:38:12.519Z,32.26
2022-08-09T18:40:40.852Z,32.45
2022-08-09T18:43:08.886Z,32.78
2022-08-09T18:46:46.761Z,33.28
2022-08-09T18:48:30.391Z,33.39
2022-08-09T18:51:01.341Z,33.52
2022-08-09T18:53:55.938Z,34.06
2022-08-09T18:56:17.826Z,34.39
2022-08-09T18:58:51.386Z,34.68
2022-08-09T19:01:25.822Z,35.14
2022-08-09T19:04:01.380Z,34.91
2022-08-09T19:06:35.003Z,35.40
2022-08-09T19:09:06.981Z,35.61
2022-08-09T19:11:38.407Z,35.68
2022-08-09T19:14:07.181Z,36.02
2022-08-09T19:16:38.081Z,36.34
2022-08-09T19:19:25.180Z,36.26
2022-08-09T19:22:05.096Z,36.40
2022-08-09T19:24:39.347Z,36.45
2022-08-09T19:27:23.121Z,36.88
2022-08-09T19:30:23.075Z,36.86
2022-08-09T19:32:40.466Z,37.39
2022-08-09T19:35:09.430Z,37.24
2022-08-09T19:37:54.231Z,38.07
2022-08-09T19:40:23.005Z,38.56
2022-08-09T19:42:52.213Z,37.96
2022-08-09T19:45:20.547Z,38.33
2022-08-09T19:47:49.821Z,38.37
2022-08-09T19:50:50.477Z,38.67
2022-08-09T19:53:06.475Z,38.99
2022-08-09T19:56:03.457Z,39.17
2022-08-09T19:58:29.546Z,38.90
2022-08-09T20:00:58.532Z,39.23
2022-08-09T20:04:18.308Z,39.47
2022-08-09T20:06:23.467Z,39.43
2022-08-09T20:08:56.632Z,39.83
2022-08-09T20:11:25.828Z,39.90
2022-08-09T20:13:54.805Z,40.19
2022-08-09T20:19:47.880Z,40.49
2022-08-09T20:22:00.204Z,40.58
2022-08-09T20:24:29.878Z,41.42
2022-08-09T20:27:05.606Z,41.88
2022-08-09T20:29:38.672Z,42.42
2022-08-09T20:32:30.750Z,42.71
2022-08-09T20:34:57.695Z,42.92
2022-08-09T20:37:25.807Z,43.11
2022-08-09T20:40:18.860Z,43.28
2022-08-09T20:42:59.334Z,43.59
2022-08-09T20:45:59.267Z,44.08
2022-08-09T20:48:21.145Z,44.59
2022-08-09T20:50:55.640Z,44.42
2022-08-09T20:53:37.652Z,44.69
2022-08-09T20:56:09.407Z,44.85
2022-08-09T20:58:50.059Z,44.04
2022-08-09T21:01:34.539Z,44.46
2022-08-09T21:05:51.828Z,44.25
2022-08-09T21:06:57.688Z,44.21
2022-08-09T21:09:41.843Z,44.15
2022-08-09T21:14:48.351Z,44.38
2022-08-09T21:18:22.064Z,44.51
2022-08-09T21:20:22.595Z,44.60
2022-08-09T21:22:55.007Z,44.28
2022-08-09T21:25:44.381Z,44.57
2022-08-09T21:28:33.376Z,44.35
2022-08-09T21:31:17.204Z,44.29
2022-08-09T21:33:51.374Z,44.35
2022-08-09T21:36:23.181Z,44.59
2022-08-09T21:38:58.050Z,44.83
2022-08-09T21:41:59.910Z,44.96
2022-08-09T21:44:32.725Z,45.59
2022-08-09T21:47:05.144Z,45.76
2022-08-09T21:49:40.054Z,46.17
2022-08-09T21:52:16.499Z,46.27
2022-08-09T21:54:50.564Z,46.07
2022-08-09T21:57:36.919Z,46.79
2022-08-09T22:00:10.563Z,47.12
2022-08-09T22:02:42.888Z,47.29
2022-08-09T22:05:22.409Z,46.86
2022-08-09T22:07:53.379Z,46.90
2022-08-09T22:10:24.154Z,46.86
2022-08-09T22:12:52.941Z,47.06
2022-08-09T22:15:23.393Z,47.00
2022-08-09T22:18:02.984Z,47.10
2022-08-09T22:20:31.099Z,47.37
2022-08-09T22:22:59.928Z,47.43
2022-08-09T22:26:05.335Z,47.74
2022-08-09T22:28:21.022Z,47.95
2022-08-09T22:30:57.846Z,48.12
2022-08-09T22:33:26.010Z,48.66
2022-08-09T22:36:13.986Z,49.70
2022-08-09T22:38:47.551Z,49.79
2022-08-09T22:41:17.325Z,50.68
2022-08-09T22:44:02.575Z,50.80
2022-08-09T22:48:15.885Z,51.38
2022-08-09T22:49:20.231Z,51.86
2022-08-09T22:51:56.974Z,52.26
2022-08-09T22:54:27.316Z,52.64
2022-08-09T22:56:58.778Z,52.33
2022-08-09T22:59:55.237Z,52.95
2022-08-09T23:02:20.102Z,53.59
2022-08-09T23:04:53.981Z,54.02
2022-08-09T23:08:27.270Z,54.43
2022-08-09T23:10:32.042Z,54.51
2022-08-09T23:13:01.229Z,54.69
2022-08-09T23:15:30.295Z,54.47
2022-08-09T23:17:58.240Z,54.62
2022-08-09T23:20:28.784Z,54.90
2022-08-09T23:22:56.751Z,55.01
2022-08-09T23:25:24.717Z,55.89
2022-08-09T23:28:15.808Z,56.15
2022-08-09T23:30:50.888Z,56.30
2022-08-09T23:33:20.501Z,56.41
2022-08-09T23:36:04.956Z,56.33
2022-08-09T23:38:35.189Z,56.31
2022-08-09T23:41:04.071Z,56.21
2022-08-09T23:43:32.021Z,56.20
2022-08-09T23:46:01.540Z,57.28
2022-08-09T23:48:29.462Z,58.79
2022-08-09T23:50:57.336Z,58.87
2022-08-09T23:53:25.612Z,59.10
2022-08-09T23:55:59.062Z,58.91
2022-08-09T23:58:29.954Z,59.46
